createdAt,value
2023-06-07T00:08:59.403Z,21.52
2023-06-07T00:14:06.597Z,24.05
2023-06-07T00:19:14.451Z,21.80
2023-06-07T00:24:21.263Z,22.52
2023-06-07T00:29:27.970Z,20.35
2023-06-07T00:34:35.739Z,20.27
2023-06-07T00:39:42.036Z,32.25
2023-06-07T00:44:51.364Z,22.45
2023-06-07T00:49:58.099Z,24.48
2023-06-07T00:55:07.253Z,14.57
2023-06-07T01:00:16.105Z,21.23
2023-06-07T01:05:23.627Z,23.13
2023-06-07T01:10:31.471Z,20.92
2023-06-07T01:15:39.288Z,22.15
2023-06-07T01:20:52.796Z,20.15
2023-06-07T01:26:01.069Z,21.63
2023-06-07T01:31:10.657Z,21.35
2023-06-07T01:36:19.242Z,20.65
2023-06-07T01:41:25.985Z,19.05
2023-06-07T01:46:33.143Z,19.38
2023-06-07T01:51:39.006Z,15.73
2023-06-07T01:57:13.784Z,21.42
2023-06-07T02:02:31.766Z,20.88
2023-06-07T02:07:59.236Z,19.92
2023-06-07T02:13:05.329Z,14.95
2023-06-07T02:18:11.364Z,18.25
2023-06-07T02:23:18.418Z,15.73
2023-06-07T02:28:23.900Z,16.27
2023-06-07T02:38:35.256Z,15.48
2023-06-07T02:43:42.094Z,15.80
2023-06-07T02:48:47.710Z,16.23
2023-06-07T02:53:55.828Z,14.73
2023-06-07T02:59:03.978Z,12.63
2023-06-07T03:04:51.585Z,16.08
2023-06-07T03:10:37.391Z,13.38
2023-06-07T03:16:22.295Z,11.70
2023-06-07T03:22:14.203Z,18.77
2023-06-07T03:27:20.957Z,10.48
2023-06-07T03:32:26.555Z,12.43
2023-06-07T03:37:33.335Z,16.85
2023-06-07T03:42:39.410Z,15.93
2023-06-07T03:47:46.495Z,13.07
2023-06-07T03:52:52.824Z,18.83
2023-06-07T03:58:00.559Z,16.10
2023-06-07T04:03:10.622Z,14.50
2023-06-07T04:08:17.694Z,17.02
2023-06-07T04:13:23.777Z,18.10
2023-06-07T04:18:29.525Z,11.75
2023-06-07T04:23:35.782Z,10.73
2023-06-07T04:28:44.045Z,14.15
2023-06-07T04:33:50.711Z,15.05
2023-06-07T04:38:59.147Z,12.55
2023-06-07T04:44:09.998Z,13.35
2023-06-07T04:49:20.055Z,14.23
2023-06-07T04:54:26.096Z,14.57
2023-06-07T04:59:37.557Z,11.98
2023-06-07T05:04:49.523Z,10.32
2023-06-07T05:09:56.537Z,14.38
2023-06-07T05:15:09.153Z,13.48
2023-06-07T05:20:27.511Z,14.02
2023-06-07T05:25:41.732Z,17.20
2023-06-07T05:30:52.670Z,18.75
2023-06-07T05:36:00.800Z,15.25
2023-06-07T05:41:10.445Z,15.23
2023-06-07T05:46:16.894Z,15.32
2023-06-07T05:51:27.726Z,13.80
2023-06-07T05:56:34.001Z,11.85
2023-06-07T06:01:39.630Z,15.10
2023-06-07T06:06:45.392Z,11.70
2023-06-07T06:11:54.929Z,13.48
2023-06-07T06:17:05.608Z,15.35
2023-06-07T06:22:11.908Z,12.02
2023-06-07T06:27:18.627Z,14.38
2023-06-07T06:32:25.135Z,12.30
2023-06-07T06:37:31.890Z,14.52
2023-06-07T06:42:38.422Z,13.27
2023-06-07T06:48:11.606Z,13.23
2023-06-07T06:53:18.276Z,13.32
2023-06-07T06:58:28.248Z,14.07
2023-06-07T07:03:35.047Z,15.85
2023-06-07T07:08:40.820Z,14.23
2023-06-07T07:13:46.616Z,15.68
2023-06-07T07:18:52.921Z,13.38
2023-06-07T07:24:03.543Z,13.20
2023-06-07T07:29:11.988Z,12.63
2023-06-07T07:34:18.341Z,14.68
2023-06-07T07:39:34.634Z,12.45
2023-06-07T07:44:49.455Z,11.27
2023-06-07T07:50:00.180Z,11.80
2023-06-07T07:55:10.735Z,11.32
2023-06-07T08:00:19.829Z,16.73
2023-06-07T08:05:28.869Z,10.82
2023-06-07T08:10:40.664Z,11.90
2023-06-07T08:15:52.536Z,10.73
2023-06-07T08:21:11.926Z,10.60
2023-06-07T08:26:20.333Z,13.75
2023-06-07T08:31:38.160Z,14.82
2023-06-07T08:36:46.579Z,12.32
2023-06-07T08:41:56.805Z,12.60
2023-06-07T08:47:05.334Z,10.38
2023-06-07T08:52:17.129Z,13.15
2023-06-07T08:57:24.549Z,12.18
2023-06-07T09:02:32.236Z,13.40
2023-06-07T09:07:39.248Z,11.55
2023-06-07T09:12:51.689Z,15.50
2023-06-07T09:18:07.235Z,20.58
2023-06-07T09:23:19.930Z,20.50
2023-06-07T09:28:28.377Z,22.42
2023-06-07T09:33:41.791Z,19.17
2023-06-07T09:38:50.898Z,15.88
2023-06-07T09:44:03.486Z,15.00
2023-06-07T09:49:24.322Z,16.38
2023-06-07T09:54:42.185Z,14.57
2023-06-07T10:00:21.105Z,16.77
2023-06-07T10:05:29.225Z,20.25
2023-06-07T10:10:45.290Z,18.30
2023-06-07T10:15:58.282Z,20.15
2023-06-07T10:21:15.591Z,20.58
2023-06-07T10:26:48.843Z,20.30
2023-06-07T10:32:10.939Z,19.73
2023-06-07T10:37:20.021Z,22.33
2023-06-07T10:42:27.741Z,21.05
2023-06-07T10:47:45.409Z,15.52
2023-06-07T10:53:06.217Z,17.95
2023-06-07T10:58:35.391Z,15.48
2023-06-07T11:03:42.123Z,14.18
2023-06-07T11:08:48.544Z,16.02
2023-06-07T11:14:06.623Z,22.58
2023-06-07T11:19:21.676Z,17.52
2023-06-07T11:24:41.137Z,16.57
2023-06-07T11:29:49.093Z,17.23
2023-06-07T11:35:06.183Z,15.57
2023-06-07T11:57:45.820Z,30.83
2023-06-07T12:02:56.563Z,26.30
2023-06-07T12:08:15.746Z,34.58
2023-06-07T12:13:30.342Z,32.28
2023-06-07T12:24:32.499Z,28.70
2023-06-07T12:29:47.869Z,33.80
2023-06-07T12:34:59.130Z,42.30
2023-06-07T12:40:15.645Z,37.80
2023-06-07T12:45:26.449Z,59.72
2023-06-07T12:50:33.228Z,126.03
2023-06-07T12:55:41.506Z,117.68
2023-06-07T13:00:51.059Z,101.85
2023-06-07T13:06:02.835Z,102.22
2023-06-07T13:11:17.406Z,78.75
2023-06-07T13:22:17.173Z,103.70
2023-06-07T13:27:23.218Z,99.50
2023-06-07T13:32:37.599Z,89.35
2023-06-07T13:43:49.424Z,94.43
2023-06-07T13:49:00.393Z,74.13
2023-06-07T13:54:08.672Z,82.70
2023-06-07T13:59:18.784Z,75.30
2023-06-07T14:04:30.468Z,51.30
2023-06-07T14:09:40.880Z,77.97
2023-06-07T14:15:15.822Z,54.88
2023-06-07T14:20:26.925Z,52.33
2023-06-07T14:25:49.499Z,59.72
2023-06-07T14:36:28.834Z,48.03
2023-06-07T14:41:42.382Z,44.45
2023-06-07T14:46:55.455Z,42.58
2023-06-07T14:52:15.739Z,56.67
2023-06-07T14:57:31.629Z,57.05
2023-06-07T15:02:40.391Z,55.97
2023-06-07T15:07:52.483Z,53.78
2023-06-07T15:13:13.048Z,50.47
2023-06-07T15:18:34.757Z,51.35
2023-06-07T15:23:43.614Z,47.93
2023-06-07T15:29:01.136Z,44.90
2023-06-07T15:34:14.803Z,46.20
2023-06-07T15:39:23.200Z,48.30
2023-06-07T15:44:32.018Z,44.67
2023-06-07T15:49:39.537Z,43.10
2023-06-07T15:54:45.522Z,44.70
2023-06-07T16:00:09.537Z,41.30
2023-06-07T16:05:17.888Z,46.00
2023-06-07T16:10:33.282Z,46.50
2023-06-07T16:15:40.950Z,50.67
2023-06-07T16:20:53.682Z,47.70
2023-06-07T16:25:59.609Z,51.03
2023-06-07T16:31:06.636Z,67.88
2023-06-07T16:36:17.578Z,68.20
2023-06-07T16:41:34.546Z,60.13
2023-06-07T16:46:43.089Z,64.50
2023-06-07T16:51:51.399Z,69.70
2023-06-07T16:56:58.119Z,61.50
2023-06-07T17:02:04.213Z,59.53
2023-06-07T17:07:17.008Z,57.58
2023-06-07T17:12:24.329Z,60.90
2023-06-07T17:17:31.168Z,62.53
2023-06-07T17:22:37.222Z,58.97
2023-06-07T17:27:46.145Z,57.13
2023-06-07T17:32:52.304Z,60.85
2023-06-07T17:37:57.971Z,58.83
2023-06-07T17:43:04.280Z,49.75
2023-06-07T17:48:10.314Z,50.03
2023-06-07T17:53:16.315Z,53.22
2023-06-07T17:58:22.131Z,48.47
2023-06-07T18:03:28.225Z,46.22
2023-06-07T18:08:37.650Z,46.53
2023-06-07T18:13:43.567Z,45.80
2023-06-07T18:18:49.408Z,49.63
2023-06-07T18:23:55.646Z,49.33
2023-06-07T18:29:01.670Z,46.30
2023-06-07T18:34:07.880Z,47.08
2023-06-07T18:39:13.583Z,46.67
2023-06-07T18:44:19.249Z,53.55
2023-06-07T18:49:24.925Z,56.50
2023-06-07T18:54:36.625Z,60.22
2023-06-07T18:59:43.582Z,50.97
2023-06-07T19:04:49.540Z,48.03
2023-06-07T19:09:55.718Z,56.92
2023-06-07T19:15:01.978Z,52.45
2023-06-07T19:20:09.612Z,50.10
2023-06-07T19:25:19.471Z,51.17
2023-06-07T19:30:25.141Z,51.72
2023-06-07T19:35:31.006Z,46.75
2023-06-07T19:40:40.250Z,57.20
2023-06-07T19:45:47.113Z,63.25
2023-06-07T19:50:52.954Z,53.25
2023-06-07T19:55:59.014Z,57.38
2023-06-07T20:01:04.862Z,59.50
2023-06-07T20:06:10.488Z,50.38
2023-06-07T20:11:16.923Z,55.40
2023-06-07T20:16:23.178Z,53.47
2023-06-07T20:21:29.183Z,65.82
2023-06-07T20:26:34.773Z,52.45
2023-06-07T20:31:40.747Z,56.17
2023-06-07T20:36:47.226Z,54.20
2023-06-07T20:41:53.216Z,47.22
2023-06-07T20:47:00.384Z,49.13
2023-06-07T20:52:06.420Z,54.42
2023-06-07T20:57:12.091Z,71.03
2023-06-07T21:02:17.860Z,58.30
2023-06-07T21:07:23.641Z,56.42
2023-06-07T21:12:29.655Z,62.75
2023-06-07T21:17:36.099Z,69.03
2023-06-07T21:22:42.048Z,65.18
2023-06-07T21:27:48.293Z,63.53
2023-06-07T21:32:54.336Z,65.88
2023-06-07T21:38:02.849Z,76.05
2023-06-07T21:43:08.576Z,72.53
2023-06-07T21:48:14.205Z,76.15
2023-06-07T21:53:19.768Z,57.85
2023-06-07T21:58:25.641Z,64.10
2023-06-07T22:03:31.756Z,69.60
2023-06-07T22:08:37.645Z,78.28
2023-06-07T22:13:44.441Z,60.15
2023-06-07T22:18:51.235Z,68.18
2023-06-07T22:23:58.980Z,73.75
2023-06-07T22:29:06.345Z,70.95
2023-06-07T22:34:12.352Z,75.32
2023-06-07T22:39:17.773Z,71.93
2023-06-07T22:44:23.314Z,73.45
2023-06-07T22:49:32.205Z,58.88
2023-06-07T22:54:37.937Z,77.80
2023-06-07T22:59:44.958Z,68.93
2023-06-07T23:04:54.629Z,74.95
2023-06-07T23:10:00.464Z,56.17
2023-06-07T23:15:06.131Z,72.60
2023-06-07T23:20:14.026Z,72.68
2023-06-07T23:25:19.962Z,68.10
2023-06-07T23:30:28.220Z,59.50
2023-06-07T23:35:34.030Z,68.72
2023-06-07T23:40:39.639Z,70.38
2023-06-07T23:45:45.836Z,74.30
2023-06-07T23:50:51.701Z,71.55
2023-06-07T23:55:57.604Z,54.65
